Time;durP1;ratioP1;P1;durP2;ratioP2;P2;SDS_P1;SDS_P2;PMS_P1;PMS_P2;Temp;Humidity;BMP_temperature;BMP_pressure;BME280_temperature;BME280_humidity;BME280_pressure;Samples;Min_cycle;Max_cycle;Signal;HPM_P1;HPM_P2
2022/01/02 00:00:06;;;;;;;0.50;0.50;;;6.90;99.90;;;;;;5075175;28;20393;-73
2022/01/02 00:02:34;;;;;;;0.40;0.20;;;6.90;99.90;;;;;;5113818;27;20449;-74
2022/01/02 00:05:05;;;;;;;0.40;0.20;;;6.80;99.90;;;;;;5113452;27;20371;-75
2022/01/02 00:07:33;;;;;;;0.40;0.20;;;6.80;99.90;;;;;;5110893;27;20408;-72
2022/01/02 00:10:04;;;;;;;0.40;0.20;;;6.80;99.90;;;;;;5113562;27;20722;-74
2022/01/02 00:12:33;;;;;;;0.40;0.22;;;6.80;99.90;;;;;;5111932;27;20433;-75
2022/01/02 00:15:03;;;;;;;0.40;0.30;;;6.80;99.90;;;;;;5106958;27;20389;-73
2022/01/02 00:17:30;;;;;;;0.40;0.20;;;6.80;99.90;;;;;;5109581;28;20392;-73
2022/01/02 00:20:02;;;;;;;0.40;0.20;;;6.70;99.90;;;;;;5094288;28;20380;-74
2022/01/02 00:22:36;;;;;;;0.40;0.20;;;6.60;99.90;;;;;;5110284;27;20380;-74
2022/01/02 00:25:10;;;;;;;0.40;0.20;;;6.60;99.90;;;;;;5089305;28;20503;-76
2022/01/02 00:27:36;;;;;;;0.40;0.20;;;6.50;99.90;;;;;;5112346;27;20419;-74
2022/01/02 00:30:06;;;;;;;0.40;0.20;;;6.50;99.90;;;;;;5110778;27;20396;-73
2022/01/02 00:32:37;;;;;;;0.40;0.20;;;6.50;99.90;;;;;;5114366;27;20425;-75
2022/01/02 00:35:04;;;;;;;0.40;0.30;;;6.40;99.90;;;;;;5091754;28;20728;-76
2022/01/02 00:37:29;;;;;;;0.40;0.20;;;6.50;99.90;;;;;;5091244;28;20644;-76
2022/01/02 00:39:55;;;;;;;0.40;0.20;;;6.50;99.90;;;;;;5096194;28;20743;-74
2022/01/02 00:42:31;;;;;;;0.40;0.20;;;6.50;99.90;;;;;;5100441;28;20444;-74
2022/01/02 00:45:06;;;;;;;0.40;0.20;;;6.40;99.90;;;;;;5101653;28;20388;-74
2022/01/02 00:47:51;;;;;;;0.40;0.20;;;6.50;99.90;;;;;;5082525;28;20963;-74
2022/01/02 00:50:22;;;;;;;0.40;0.20;;;6.50;99.90;;;;;;5104441;28;20379;-74
2022/01/02 00:52:50;;;;;;;0.40;0.20;;;6.50;99.90;;;;;;5104069;28;20385;-75
2022/01/02 00:55:21;;;;;;;0.40;0.20;;;6.60;99.90;;;;;;5083224;28;20669;-75
2022/01/02 00:58:01;;;;;;;1.20;0.80;;;6.50;99.90;;;;;;5101283;28;20436;-74
2022/01/02 01:00:27;;;;;;;0.40;0.20;;;6.40;99.90;;;;;;5099816;28;20382;-75
2022/01/02 01:02:59;;;;;;;0.40;0.20;;;6.40;99.90;;;;;;5101873;28;20397;-74
2022/01/02 01:05:26;;;;;;;0.40;0.20;;;6.40;99.90;;;;;;5083432;28;20708;-75
2022/01/02 01:07:54;;;;;;;0.40;0.20;;;6.40;99.90;;;;;;5100245;28;20402;-74
2022/01/02 01:10:22;;;;;;;0.40;0.20;;;6.50;99.90;;;;;;5099079;28;20376;-75
2022/01/02 01:12:53;;;;;;;0.40;0.20;;;6.50;99.90;;;;;;5099327;28;20500;-74
2022/01/02 01:15:21;;;;;;;0.40;0.20;;;6.50;99.90;;;;;;5099132;28;20484;-75
2022/01/02 01:17:48;;;;;;;0.40;0.20;;;6.50;99.90;;;;;;5098594;28;20378;-74
2022/01/02 01:20:14;;;;;;;0.40;0.20;;;6.60;99.90;;;;;;5102341;28;20471;-74
2022/01/02 01:22:41;;;;;;;0.40;0.30;;;6.60;99.90;;;;;;5098707;28;20386;-74
2022/01/02 01:25:13;;;;;;;0.50;0.50;;;6.50;99.90;;;;;;5081101;28;20775;-73
2022/01/02 01:27:39;;;;;;;0.40;0.20;;;6.50;99.90;;;;;;5099646;28;20417;-74
2022/01/02 01:30:07;;;;;;;0.40;0.20;;;6.50;99.90;;;;;;5081967;28;21008;-74
2022/01/02 01:32:33;;;;;;;0.40;0.20;;;6.40;99.90;;;;;;5098688;28;20380;-75
2022/01/02 01:34:58;;;;;;;0.40;0.20;;;6.40;99.90;;;;;;5097950;28;20412;-74
2022/01/02 01:37:24;;;;;;;0.40;0.20;;;6.30;99.90;;;;;;5099656;28;20377;-75
2022/01/02 01:39:50;;;;;;;0.40;0.20;;;6.20;99.90;;;;;;5100025;28;20429;-75
2022/01/02 01:42:26;;;;;;;0.40;0.30;;;6.10;99.90;;;;;;5098230;28;20783;-74
2022/01/02 01:45:28;;;;;;;0.40;0.20;;;6.10;99.90;;;;;;5085102;28;20497;-74
2022/01/02 01:47:37;;;;;;;0.40;0.20;;;6.20;99.90;;;;;;5097734;28;20910;-74
2022/01/02 01:50:04;;;;;;;0.40;0.20;;;6.30;99.90;;;;;;5097866;28;20402;-73
2022/01/02 01:52:29;;;;;;;0.40;0.30;;;6.20;99.90;;;;;;5099665;28;20417;-74
2022/01/02 01:54:55;;;;;;;0.40;0.20;;;6.20;99.90;;;;;;5099701;28;20859;-74
2022/01/02 01:57:21;;;;;;;0.40;0.30;;;6.20;99.90;;;;;;5099929;28;20427;-74
2022/01/02 01:59:48;;;;;;;0.40;0.20;;;6.30;99.90;;;;;;5108332;28;20457;-74
2022/01/02 02:02:15;;;;;;;0.40;0.20;;;6.30;99.90;;;;;;5109544;28;20383;-74
2022/01/02 02:04:41;;;;;;;0.40;0.20;;;6.20;99.90;;;;;;5110623;28;20408;-74
2022/01/02 02:07:07;;;;;;;0.40;0.20;;;6.20;99.90;;;;;;5112928;28;20420;-73
2022/01/02 02:09:48;;;;;;;0.40;0.20;;;6.30;99.90;;;;;;5095489;28;20473;-74
2022/01/02 02:12:14;;;;;;;0.40;0.20;;;6.30;99.90;;;;;;5096181;28;20392;-74
2022/01/02 02:14:40;;;;;;;0.40;0.20;;;6.30;99.90;;;;;;5114090;28;20372;-74
2022/01/02 02:17:06;;;;;;;0.40;0.20;;;6.30;99.90;;;;;;5114695;28;20772;-74
2022/01/02 02:19:32;;;;;;;0.40;0.20;;;6.20;99.90;;;;;;5114075;28;20503;-74
2022/01/02 02:21:58;;;;;;;0.40;0.20;;;6.30;99.90;;;;;;5114272;28;20719;-73
2022/01/02 02:24:23;;;;;;;0.40;0.20;;;6.20;99.90;;;;;;5114021;28;20734;-75
2022/01/02 02:26:49;;;;;;;0.40;0.30;;;6.20;99.90;;;;;;5114210;28;20377;-74
2022/01/02 02:29:15;;;;;;;0.40;0.20;;;6.10;99.90;;;;;;5113891;28;20411;-74
2022/01/02 02:31:43;;;;;;;0.40;0.20;;;6.00;99.90;;;;;;5113618;28;20437;-74
2022/01/02 02:34:09;;;;;;;0.40;0.20;;;6.00;99.90;;;;;;5100851;28;20413;-73
2022/01/02 02:36:35;;;;;;;0.40;0.20;;;6.10;99.90;;;;;;5074886;28;20468;-74
2022/01/02 02:39:00;;;;;;;0.40;0.20;;;6.20;99.90;;;;;;5093389;28;20386;-74
2022/01/02 02:41:31;;;;;;;0.40;0.20;;;6.10;99.90;;;;;;5093806;28;20370;-74
2022/01/02 02:44:05;;;;;;;0.40;0.20;;;6.10;99.90;;;;;;5092942;28;20400;-74
2022/01/02 02:49:15;;;;;;;0.40;0.20;;;6.00;99.90;;;;;;5093313;28;20408;-74
2022/01/02 02:54:08;;;;;;;0.40;0.20;;;6.10;99.90;;;;;;5092796;28;20490;-74
2022/01/02 02:59:20;;;;;;;0.40;0.20;;;6.20;99.90;;;;;;5093503;28;20455;-74
2022/01/02 03:01:45;;;;;;;0.40;0.20;;;6.10;99.90;;;;;;5093149;28;20571;-74
2022/01/02 03:04:11;;;;;;;0.40;0.20;;;6.10;99.90;;;;;;5074231;28;20392;-74
2022/01/02 03:06:37;;;;;;;0.40;0.20;;;6.10;99.90;;;;;;5092932;28;20374;-74
2022/01/02 03:09:08;;;;;;;0.40;0.20;;;6.10;99.90;;;;;;5092407;28;20693;-74
2022/01/02 03:11:34;;;;;;;0.40;0.20;;;6.10;99.90;;;;;;5093401;28;20389;-74
2022/01/02 03:13:59;;;;;;;0.40;0.20;;;6.10;99.90;;;;;;5074338;28;20387;-75
2022/01/02 03:16:25;;;;;;;0.40;0.40;;;6.10;99.90;;;;;;5092844;28;20382;-74
2022/01/02 03:18:51;;;;;;;0.40;0.20;;;6.10;99.90;;;;;;5073219;28;20779;-74
2022/01/02 03:21:17;;;;;;;0.40;0.20;;;6.10;99.90;;;;;;5057221;28;20476;-74
2022/01/02 03:23:42;;;;;;;0.40;0.20;;;6.10;99.90;;;;;;5074826;28;20729;-74
2022/01/02 03:26:08;;;;;;;0.40;0.30;;;6.20;99.90;;;;;;5092664;28;20390;-74
2022/01/02 03:28:34;;;;;;;0.40;0.30;;;6.10;99.90;;;;;;5092349;28;20431;-74
2022/01/02 03:31:00;;;;;;;0.40;0.30;;;6.10;99.90;;;;;;5092903;28;20431;-74
2022/01/02 03:33:26;;;;;;;0.40;0.20;;;6.10;99.90;;;;;;5099251;28;20384;-74
2022/01/02 03:35:52;;;;;;;0.40;0.20;;;6.10;99.90;;;;;;5112848;28;20403;-74
2022/01/02 03:38:18;;;;;;;0.40;0.30;;;6.10;99.90;;;;;;5112585;28;20392;-75
2022/01/02 03:40:44;;;;;;;0.40;0.20;;;6.10;99.90;;;;;;5113035;28;20459;-74
2022/01/02 03:43:09;;;;;;;0.40;0.20;;;6.00;99.90;;;;;;5112685;28;20850;-74
2022/01/02 03:45:35;;;;;;;0.40;0.20;;;6.00;99.90;;;;;;5093716;28;20513;-74
2022/01/02 03:48:01;;;;;;;0.40;0.20;;;6.00;99.90;;;;;;5094660;28;20544;-74
2022/01/02 03:50:27;;;;;;;0.40;0.20;;;5.90;99.90;;;;;;5112480;28;20407;-74
2022/01/02 03:52:53;;;;;;;0.40;0.20;;;5.80;99.90;;;;;;5112710;28;20373;-74
2022/01/02 03:55:19;;;;;;;0.40;0.20;;;5.70;99.90;;;;;;5112410;28;20396;-74
2022/01/02 03:57:45;;;;;;;0.40;0.20;;;5.70;99.90;;;;;;5093641;28;20730;-74
2022/01/02 04:00:13;;;;;;;0.40;0.20;;;5.80;99.90;;;;;;5112589;28;20450;-74
2022/01/02 04:02:38;;;;;;;0.50;0.40;;;5.80;99.90;;;;;;5111525;28;20372;-74
2022/01/02 04:05:06;;;;;;;0.40;0.20;;;5.80;99.90;;;;;;5094153;28;20388;-74
2022/01/02 04:07:32;;;;;;;0.40;0.20;;;5.80;99.90;;;;;;5112375;28;20400;-74
2022/01/02 04:10:01;;;;;;;0.40;0.20;;;5.80;99.90;;;;;;5111471;28;20491;-74
2022/01/02 04:12:27;;;;;;;0.40;0.20;;;5.80;99.90;;;;;;5112574;28;20372;-73
2022/01/02 04:14:53;;;;;;;0.40;0.20;;;5.80;99.90;;;;;;5111470;28;20747;-74
2022/01/02 04:17:19;;;;;;;0.40;0.20;;;5.80;99.90;;;;;;5111985;28;20512;-74
2022/01/02 04:19:44;;;;;;;0.40;0.20;;;5.80;99.90;;;;;;5112079;28;20483;-73
2022/01/02 04:22:10;;;;;;;0.40;0.20;;;5.90;99.90;;;;;;5111353;28;20421;-73
2022/01/02 04:24:35;;;;;;;0.80;0.70;;;6.00;99.90;;;;;;5112018;28;20396;-73
2022/01/02 04:27:01;;;;;;;0.40;0.20;;;6.10;99.90;;;;;;5111013;28;20372;-73
2022/01/02 04:29:27;;;;;;;0.40;0.20;;;6.00;99.90;;;;;;5111693;28;20420;-73
2022/01/02 04:31:52;;;;;;;0.40;0.20;;;6.00;99.90;;;;;;5093940;28;20376;-73
2022/01/02 04:34:18;;;;;;;0.40;0.20;;;5.90;99.90;;;;;;5097115;28;20382;-73
2022/01/02 04:36:44;;;;;;;0.40;0.20;;;5.90;99.90;;;;;;5073765;28;20382;-74
2022/01/02 04:39:09;;;;;;;0.40;0.20;;;5.90;99.90;;;;;;5090903;28;20746;-74
2022/01/02 04:41:35;;;;;;;0.40;0.20;;;5.90;99.90;;;;;;5092015;28;20382;-74
2022/01/02 04:44:01;;;;;;;0.40;0.20;;;5.90;99.90;;;;;;5091552;28;20804;-74
2022/01/02 04:46:26;;;;;;;0.40;0.20;;;6.00;99.90;;;;;;5090853;28;20405;-74
2022/01/02 04:48:52;;;;;;;0.40;0.20;;;5.90;99.90;;;;;;5091384;28;20421;-73
2022/01/02 04:51:17;;;;;;;0.40;0.20;;;6.10;99.90;;;;;;5072671;28;20935;-74
2022/01/02 04:53:48;;;;;;;0.40;0.30;;;6.10;99.90;;;;;;5091437;28;20868;-73
2022/01/02 04:56:14;;;;;;;0.40;0.20;;;6.10;99.90;;;;;;5090818;28;20390;-74
2022/01/02 04:58:40;;;;;;;0.40;0.20;;;6.00;99.90;;;;;;5091553;28;20370;-73
2022/01/02 05:01:11;;;;;;;0.40;0.20;;;6.10;99.90;;;;;;5091191;28;20436;-73
2022/01/02 05:03:38;;;;;;;0.40;0.20;;;6.00;99.90;;;;;;5090421;28;20373;-73
2022/01/02 05:06:04;;;;;;;1.10;0.60;;;6.00;99.90;;;;;;5091222;28;20385;-73
2022/01/02 05:08:30;;;;;;;1.00;0.90;;;6.00;99.90;;;;;;5090677;28;20507;-73
2022/01/02 05:10:55;;;;;;;0.40;0.20;;;6.10;99.90;;;;;;5091136;28;20887;-73
2022/01/02 05:13:21;;;;;;;0.40;0.20;;;6.00;99.90;;;;;;5091285;28;20415;-73
2022/01/02 05:15:47;;;;;;;0.40;0.20;;;5.90;99.90;;;;;;5090690;28;21128;-73
2022/01/02 05:18:13;;;;;;;0.40;0.20;;;5.80;99.90;;;;;;5091222;28;20420;-73
2022/01/02 05:20:39;;;;;;;0.60;0.60;;;5.80;99.90;;;;;;5090442;28;20875;-73
2022/01/02 05:23:05;;;;;;;0.40;0.30;;;5.80;99.90;;;;;;5090989;28;20381;-73
2022/01/02 05:25:31;;;;;;;0.40;0.20;;;5.80;99.90;;;;;;5072891;28;20451;-74
2022/01/02 05:27:56;;;;;;;0.40;0.20;;;5.80;99.90;;;;;;5090114;28;20402;-73
2022/01/02 05:30:22;;;;;;;0.40;0.30;;;5.90;99.90;;;;;;5072502;28;20406;-73
2022/01/02 05:32:48;;;;;;;0.40;0.20;;;5.80;99.90;;;;;;5091313;28;20862;-73
2022/01/02 05:35:13;;;;;;;0.40;0.20;;;5.80;99.90;;;;;;5111311;28;20854;-73
2022/01/02 05:37:39;;;;;;;0.40;0.30;;;5.80;99.90;;;;;;5110884;28;20476;-74
2022/01/02 05:40:05;;;;;;;0.40;0.20;;;5.90;99.90;;;;;;5110447;28;20384;-73
2022/01/02 05:42:31;;;;;;;0.40;0.20;;;5.90;99.90;;;;;;5110280;28;20383;-73
2022/01/02 05:44:57;;;;;;;0.40;0.20;;;5.80;99.90;;;;;;5110359;28;20377;-73
2022/01/02 05:47:22;;;;;;;0.40;0.20;;;5.90;99.90;;;;;;5110942;28;20388;-73
2022/01/02 05:49:48;;;;;;;0.40;0.20;;;5.90;99.90;;;;;;5110798;28;20372;-74
2022/01/02 05:52:13;;;;;;;0.70;0.70;;;6.00;99.90;;;;;;5110540;28;20380;-73
2022/01/02 05:54:39;;;;;;;0.40;0.20;;;5.90;99.90;;;;;;5092545;28;20403;-73
2022/01/02 05:57:05;;;;;;;0.40;0.30;;;5.90;99.90;;;;;;5092047;28;20430;-74
2022/01/02 05:59:30;;;;;;;0.40;0.20;;;6.00;99.90;;;;;;5111570;28;20796;-74
2022/01/02 06:01:56;;;;;;;0.40;0.20;;;6.10;99.90;;;;;;5110613;28;20384;-74
2022/01/02 06:04:22;;;;;;;0.40;0.30;;;6.00;99.90;;;;;;5110242;28;20401;-74
2022/01/02 06:06:47;;;;;;;0.40;0.20;;;6.00;99.90;;;;;;5092871;28;20438;-74
2022/01/02 06:09:13;;;;;;;0.40;0.20;;;6.00;99.90;;;;;;5109870;28;20875;-74
2022/01/02 06:11:38;;;;;;;0.40;0.20;;;6.00;99.90;;;;;;5111168;28;20830;-73
2022/01/02 06:14:04;;;;;;;0.40;0.20;;;6.10;99.90;;;;;;5110874;28;20376;-73
2022/01/02 06:16:31;;;;;;;0.40;0.28;;;6.10;99.90;;;;;;5109888;28;20480;-73
2022/01/02 06:18:57;;;;;;;0.40;0.20;;;6.40;99.90;;;;;;5110828;28;20462;-73
2022/01/02 06:21:23;;;;;;;0.40;0.20;;;6.40;99.90;;;;;;5110103;28;20436;-73
2022/01/02 06:23:49;;;;;;;0.40;0.20;;;6.40;99.90;;;;;;5110431;28;20419;-73
2022/01/02 06:26:14;;;;;;;0.40;0.20;;;6.50;99.90;;;;;;5092322;28;20745;-74
2022/01/02 06:28:40;;;;;;;0.40;0.20;;;6.60;99.90;;;;;;5091719;28;20465;-73
2022/01/02 06:31:06;;;;;;;0.40;0.20;;;6.50;99.90;;;;;;5110520;28;20373;-73
2022/01/02 06:33:31;;;;;;;0.40;0.20;;;6.40;99.90;;;;;;5083819;28;20465;-73
2022/01/02 06:35:57;;;;;;;0.70;0.70;;;6.50;99.90;;;;;;5090121;28;20382;-73
2022/01/02 06:38:23;;;;;;;0.40;0.20;;;6.50;99.90;;;;;;5089891;28;20382;-74
2022/01/02 06:40:49;;;;;;;0.90;0.80;;;6.40;99.90;;;;;;5089713;28;20466;-74
2022/01/02 06:43:16;;;;;;;0.40;0.20;;;6.50;99.90;;;;;;5072206;28;20394;-73
2022/01/02 06:45:43;;;;;;;0.40;0.20;;;6.40;99.90;;;;;;5089239;28;20389;-73
2022/01/02 06:48:09;;;;;;;0.40;0.20;;;6.50;99.90;;;;;;5089983;28;20402;-73
2022/01/02 06:50:35;;;;;;;0.40;0.20;;;6.50;99.90;;;;;;5089574;28;20381;-74
2022/01/02 06:53:01;;;;;;;0.80;0.60;;;6.60;99.90;;;;;;5073706;28;20759;-72
2022/01/02 06:55:26;;;;;;;0.40;0.20;;;6.60;99.90;;;;;;5093591;28;20374;-73
2022/01/02 06:57:52;;;;;;;0.40;0.20;;;6.60;99.90;;;;;;5092964;28;20378;-73
2022/01/02 07:00:18;;;;;;;0.40;0.20;;;6.70;99.90;;;;;;5075599;28;20390;-73
2022/01/02 07:02:43;;;;;;;0.60;0.60;;;6.80;99.90;;;;;;5074374;28;20374;-73
2022/01/02 07:05:09;;;;;;;0.40;0.20;;;6.90;99.90;;;;;;5093418;28;20469;-73
2022/01/02 07:07:45;;;;;;;0.40;0.20;;;6.80;99.90;;;;;;5075258;28;20986;-73
2022/01/02 07:10:14;;;;;;;0.40;0.20;;;6.80;99.90;;;;;;5093321;28;20463;-73
2022/01/02 07:12:40;;;;;;;0.40;0.20;;;6.80;99.90;;;;;;5093469;28;20374;-73
2022/01/02 07:15:07;;;;;;;0.40;0.20;;;6.90;99.90;;;;;;5074286;28;20421;-73
2022/01/02 07:17:33;;;;;;;0.40;0.20;;;6.80;99.90;;;;;;5093114;28;20871;-73
2022/01/02 07:19:58;;;;;;;0.40;0.20;;;6.80;99.90;;;;;;5092515;28;20385;-73
2022/01/02 07:22:24;;;;;;;0.40;0.20;;;6.70;99.90;;;;;;5093268;28;20394;-73
2022/01/02 07:24:51;;;;;;;0.40;0.20;;;6.70;99.90;;;;;;5074703;28;20402;-73
2022/01/02 07:27:18;;;;;;;0.40;0.20;;;6.60;99.90;;;;;;5092366;28;20451;-73
2022/01/02 07:29:44;;;;;;;0.40;0.20;;;6.60;99.90;;;;;;5092890;28;20504;-73
2022/01/02 07:32:10;;;;;;;0.40;0.20;;;6.60;99.90;;;;;;5092164;28;20427;-73
2022/01/02 07:34:36;;;;;;;0.40;0.20;;;6.60;99.90;;;;;;5091221;28;20969;-73
2022/01/02 07:37:02;;;;;;;0.40;0.20;;;6.60;99.90;;;;;;5113251;28;20464;-73
2022/01/02 07:39:27;;;;;;;0.40;0.20;;;6.60;99.90;;;;;;5112251;28;20399;-73
2022/01/02 07:41:53;;;;;;;0.40;0.20;;;6.70;99.90;;;;;;5113117;28;20368;-73
2022/01/02 07:44:18;;;;;;;0.40;0.20;;;6.70;99.90;;;;;;5094252;28;20392;-73
2022/01/02 07:46:44;;;;;;;0.40;0.30;;;6.70;99.90;;;;;;5113677;28;20878;-73
2022/01/02 07:49:10;;;;;;;0.40;0.20;;;6.60;99.90;;;;;;5112909;28;20417;-74
2022/01/02 07:51:36;;;;;;;0.40;0.20;;;6.70;99.90;;;;;;5112459;28;20410;-73
2022/01/02 07:54:02;;;;;;;0.40;0.20;;;6.80;99.90;;;;;;5113036;28;20897;-73
2022/01/02 07:56:27;;;;;;;0.40;0.20;;;6.80;99.90;;;;;;5112576;28;20369;-73
2022/01/02 07:58:55;;;;;;;0.40;0.20;;;6.80;99.90;;;;;;5112890;28;20376;-73
2022/01/02 08:01:21;;;;;;;0.40;0.30;;;6.90;99.90;;;;;;5112258;28;20416;-74
2022/01/02 08:03:47;;;;;;;0.40;0.20;;;7.00;99.90;;;;;;5093827;28;20377;-73
2022/01/02 08:06:13;;;;;;;0.50;0.50;;;7.10;99.90;;;;;;5112691;28;20382;-73
2022/01/02 08:08:38;;;;;;;0.50;0.40;;;7.20;99.90;;;;;;5111776;28;20493;-74
2022/01/02 08:11:04;;;;;;;0.40;0.20;;;7.30;99.90;;;;;;5094729;28;20384;-74
2022/01/02 08:13:30;;;;;;;0.40;0.20;;;7.30;99.90;;;;;;5111794;28;20437;-75
2022/01/02 08:15:55;;;;;;;0.40;0.20;;;7.30;99.90;;;;;;5112945;28;20380;-74
2022/01/02 08:18:21;;;;;;;0.40;0.20;;;7.30;99.90;;;;;;5112656;28;20708;-74
2022/01/02 08:20:47;;;;;;;0.40;0.20;;;7.30;99.90;;;;;;5111746;28;20491;-73
2022/01/02 08:23:14;;;;;;;0.40;0.20;;;7.40;99.90;;;;;;5112211;28;20397;-74
2022/01/02 08:25:40;;;;;;;0.40;0.20;;;7.50;99.90;;;;;;5111704;28;20376;-74
2022/01/02 08:28:05;;;;;;;0.40;0.20;;;7.50;99.90;;;;;;5111933;28;20404;-74
2022/01/02 08:30:31;;;;;;;0.40;0.30;;;7.70;99.90;;;;;;5112133;28;20369;-74
2022/01/02 08:32:57;;;;;;;0.40;0.20;;;7.70;99.90;;;;;;5111200;28;20399;-74
2022/01/02 08:35:23;;;;;;;0.40;0.20;;;7.80;99.90;;;;;;5112049;28;20380;-73
2022/01/02 08:37:48;;;;;;;0.40;0.30;;;7.90;99.90;;;;;;5111752;28;20938;-74
2022/01/02 08:40:14;;;;;;;0.40;0.30;;;8.00;99.90;;;;;;5111859;28;20391;-73
2022/01/02 08:42:40;;;;;;;0.40;0.20;;;8.00;99.90;;;;;;5094085;28;20459;-74
2022/01/02 08:45:07;;;;;;;1.10;1.00;;;8.20;99.90;;;;;;5111729;28;20464;-74
2022/01/02 08:47:32;;;;;;;0.40;0.30;;;8.20;99.90;;;;;;5111723;28;20754;-74
2022/01/02 08:49:58;;;;;;;0.40;0.20;;;8.20;99.90;;;;;;5092963;28;20388;-74
2022/01/02 08:52:25;;;;;;;0.40;0.20;;;8.20;99.90;;;;;;5111637;28;20456;-74
2022/01/02 08:54:51;;;;;;;0.40;0.20;;;8.30;99.90;;;;;;5111094;28;20395;-75
2022/01/02 08:57:17;;;;;;;0.40;0.30;;;8.20;99.90;;;;;;5111926;28;20460;-74
2022/01/02 08:59:43;;;;;;;0.40;0.20;;;8.30;99.90;;;;;;5093719;28;20380;-74
2022/01/02 09:02:08;;;;;;;0.40;0.20;;;8.40;99.90;;;;;;5110717;28;20391;-74
2022/01/02 09:04:34;;;;;;;0.40;0.20;;;8.40;99.90;;;;;;5111449;28;20471;-73
2022/01/02 09:07:01;;;;;;;0.40;0.20;;;8.50;99.90;;;;;;5110889;28;20373;-74
2022/01/02 09:09:27;;;;;;;0.40;0.20;;;8.60;99.90;;;;;;5111395;28;20428;-73
2022/01/02 09:11:53;;;;;;;0.40;0.20;;;8.80;99.90;;;;;;5111335;28;20388;-74
2022/01/02 09:14:19;;;;;;;0.40;0.20;;;8.90;99.90;;;;;;5110890;28;20376;-74
2022/01/02 09:16:45;;;;;;;0.90;0.70;;;8.90;99.90;;;;;;5093337;28;20512;-74
2022/01/02 09:19:12;;;;;;;0.40;0.30;;;9.10;99.90;;;;;;5110416;28;20394;-74
2022/01/02 09:21:38;;;;;;;0.40;0.30;;;9.20;99.90;;;;;;5111588;28;20380;-74
2022/01/02 09:24:05;;;;;;;0.40;0.20;;;9.30;99.90;;;;;;5110711;28;20415;-75
2022/01/02 09:26:31;;;;;;;0.40;0.20;;;9.40;99.90;;;;;;5076326;28;20451;-74
2022/01/02 09:28:57;;;;;;;0.40;0.30;;;9.50;99.90;;;;;;5111039;28;20412;-74
2022/01/02 09:31:23;;;;;;;0.40;0.20;;;9.80;99.90;;;;;;5110548;28;20380;-74
2022/01/02 09:33:49;;;;;;;0.40;0.30;;;10.50;99.30;;;;;;5101079;28;20382;-74
2022/01/02 09:36:15;;;;;;;0.40;0.20;;;10.50;99.90;;;;;;5090199;28;20417;-75
2022/01/02 09:38:42;;;;;;;0.40;0.20;;;11.70;89.70;;;;;;5090709;28;20469;-75
2022/01/02 09:41:08;;;;;;;0.40;0.20;;;12.70;82.30;;;;;;5072949;28;20744;-74
2022/01/02 09:43:34;;;;;;;0.40;0.20;;;13.00;81.20;;;;;;5089961;28;20397;-74
2022/01/02 09:46:02;;;;;;;0.40;0.30;;;13.20;78.80;;;;;;5090676;28;20374;-74
2022/01/02 09:48:28;;;;;;;0.40;0.30;;;13.40;76.90;;;;;;5089554;28;20401;-74
2022/01/02 09:50:55;;;;;;;0.40;0.20;;;13.80;72.40;;;;;;5090525;28;20811;-75
2022/01/02 09:53:21;;;;;;;0.40;0.30;;;13.70;72.80;;;;;;5090601;28;20404;-75
2022/01/02 09:55:46;;;;;;;0.40;0.20;;;13.80;71.30;;;;;;5090030;28;20382;-75
2022/01/02 09:58:13;;;;;;;0.40;0.20;;;14.20;68.20;;;;;;5072635;28;20388;-75
2022/01/02 10:00:39;;;;;;;0.40;0.20;;;14.20;68.50;;;;;;5089736;28;20378;-76
2022/01/02 10:03:12;;;;;;;0.40;0.30;;;14.30;66.70;;;;;;5072435;28;20469;-75
2022/01/02 10:05:59;;;;;;;0.40;0.20;;;14.30;67.00;;;;;;5089943;28;20378;-76
2022/01/02 10:08:43;;;;;;;0.50;0.50;;;14.20;66.50;;;;;;5090563;28;20402;-76
2022/01/02 10:11:23;;;;;;;1.40;0.80;;;14.50;63.10;;;;;;5090531;28;20409;-76
2022/01/02 10:13:51;;;;;;;0.80;0.70;;;14.80;60.50;;;;;;5071819;28;20460;-75
2022/01/02 10:16:19;;;;;;;0.40;0.30;;;14.80;61.20;;;;;;5072188;28;20389;-73
2022/01/02 10:18:46;;;;;;;0.40;0.20;;;14.80;60.00;;;;;;5105979;28;20433;-73
2022/01/02 10:21:25;;;;;;;0.40;0.20;;;14.80;59.50;;;;;;5105779;28;20401;-73
2022/01/02 10:24:09;;;;;;;0.40;0.30;;;15.00;58.30;;;;;;5089470;28;20881;-73
2022/01/02 10:26:35;;;;;;;0.40;0.20;;;14.70;59.80;;;;;;5107635;28;20429;-72
2022/01/02 10:29:13;;;;;;;1.30;0.60;;;14.80;58.70;;;;;;5095022;28;20809;-74
2022/01/02 10:31:39;;;;;;;0.40;0.40;;;15.00;57.70;;;;;;5114810;28;20468;-74
2022/01/02 10:34:05;;;;;;;0.40;0.30;;;15.10;57.60;;;;;;5114039;28;20454;-73
2022/01/02 10:36:32;;;;;;;0.40;0.20;;;14.90;57.80;;;;;;5096174;28;20793;-75
2022/01/02 10:39:14;;;;;;;0.40;0.20;;;14.90;58.60;;;;;;5113528;28;20402;-75
2022/01/02 10:41:41;;;;;;;0.40;0.20;;;14.80;57.50;;;;;;5092783;28;20425;-75
2022/01/02 10:44:22;;;;;;;0.40;0.20;;;15.00;57.20;;;;;;5086353;28;20459;-74
2022/01/02 10:47:18;;;;;;;0.40;0.20;;;15.20;56.60;;;;;;5100498;28;20380;-74
2022/01/02 10:49:53;;;;;;;0.40;0.30;;;15.10;57.00;;;;;;5101183;28;20410;-74
2022/01/02 10:52:38;;;;;;;0.40;0.20;;;15.00;57.30;;;;;;5086018;28;20388;-74
2022/01/02 10:55:18;;;;;;;0.60;0.60;;;15.10;56.60;;;;;;5087243;28;20413;-73
2022/01/02 10:57:49;;;;;;;2.85;0.75;;;15.00;56.50;;;;;;5103805;28;20568;-72
2022/01/02 11:00:16;;;;;;;0.40;0.20;;;15.00;57.00;;;;;;5089780;28;20401;-73
2022/01/02 11:02:44;;;;;;;0.40;0.20;;;15.10;56.40;;;;;;5108160;28;20391;-73
2022/01/02 11:05:15;;;;;;;0.40;0.20;;;15.20;56.20;;;;;;5106827;28;20381;-74
2022/01/02 11:07:45;;;;;;;0.40;0.40;;;15.00;56.60;;;;;;5108036;28;20388;-73
2022/01/02 11:10:13;;;;;;;0.40;0.30;;;15.00;57.20;;;;;;5087481;28;20402;-73
2022/01/02 11:12:40;;;;;;;0.40;0.30;;;14.90;57.30;;;;;;5102642;28;20374;-72
2022/01/02 11:15:18;;;;;;;0.40;0.30;;;14.90;57.40;;;;;;5083814;28;20421;-73
2022/01/02 11:17:44;;;;;;;0.40;0.20;;;14.90;58.60;;;;;;5085191;28;20396;-74
2022/01/02 11:20:15;;;;;;;0.40;0.20;;;14.80;58.30;;;;;;5102787;28;20437;-73
2022/01/02 11:22:44;;;;;;;0.40;0.22;;;14.90;58.20;;;;;;5093578;28;20477;-73
2022/01/02 11:25:23;;;;;;;0.40;0.20;;;14.90;58.40;;;;;;5096619;28;20481;-73
2022/01/02 11:27:59;;;;;;;0.40;0.22;;;14.80;59.00;;;;;;5101293;28;20463;-74
2022/01/02 11:30:32;;;;;;;0.40;0.20;;;15.00;58.20;;;;;;5081020;28;20839;-74
2022/01/02 11:33:13;;;;;;;0.40;0.30;;;14.90;58.60;;;;;;5064748;28;20787;-73
2022/01/02 11:35:44;;;;;;;0.40;0.20;;;15.10;58.10;;;;;;5079775;28;20905;-74
2022/01/02 11:38:11;;;;;;;0.40;0.30;;;15.20;58.00;;;;;;5083171;28;20823;-74
2022/01/02 11:40:58;;;;;;;0.40;0.20;;;15.30;57.70;;;;;;5079297;28;20374;-72
2022/01/02 11:43:36;;;;;;;0.40;0.30;;;15.30;58.20;;;;;;5080906;28;20842;-73
2022/01/02 11:46:17;;;;;;;0.40;0.30;;;15.30;58.00;;;;;;5082260;28;20782;-73
2022/01/02 11:49:03;;;;;;;0.40;0.20;;;15.30;58.30;;;;;;5063107;28;20514;-74
2022/01/02 11:51:47;;;;;;;0.40;0.30;;;15.20;58.70;;;;;;5065344;28;20413;-73
2022/01/02 11:54:28;;;;;;;0.40;0.30;;;15.40;58.00;;;;;;5083223;28;20490;-73
2022/01/02 11:56:57;;;;;;;0.40;0.20;;;15.40;58.40;;;;;;5082722;28;20456;-73
2022/01/02 11:59:38;;;;;;;0.40;0.22;;;15.40;58.50;;;;;;5081241;28;20418;-73
2022/01/02 12:02:31;;;;;;;1.30;0.60;;;15.50;58.60;;;;;;5082145;28;20739;-72
2022/01/02 12:04:59;;;;;;;0.40;0.30;;;15.50;59.30;;;;;;5079479;28;20442;-74
2022/01/02 12:07:34;;;;;;;0.40;0.20;;;15.50;58.90;;;;;;5082674;28;20418;-72
2022/01/02 12:12:59;;;;;;;0.40;0.30;;;15.70;58.70;;;;;;5082635;28;20390;-75
2022/01/02 12:15:45;;;;;;;0.40;0.20;;;15.80;58.90;;;;;;5082731;28;20899;-74
2022/01/02 12:18:27;;;;;;;0.40;0.20;;;16.00;59.30;;;;;;5080856;28;20407;-73
2022/01/02 12:20:52;;;;;;;0.40;0.30;;;16.20;58.00;;;;;;5082310;28;20384;-73
2022/01/02 12:23:36;;;;;;;0.40;0.20;;;16.70;57.90;;;;;;5078329;28;20745;-75
2022/01/02 12:26:04;;;;;;;0.40;0.20;;;16.80;56.60;;;;;;5081573;28;20465;-72
2022/01/02 12:28:44;;;;;;;0.40;0.30;;;17.00;56.90;;;;;;5087159;28;20931;-73
2022/01/02 12:31:12;;;;;;;0.40;0.30;;;17.10;57.10;;;;;;5107383;28;20364;-73
2022/01/02 12:33:39;;;;;;;0.40;0.30;;;17.10;55.90;;;;;;5104595;28;20906;-73
2022/01/02 12:36:15;;;;;;;0.40;0.20;;;17.00;56.90;;;;;;5105793;28;20388;-73
2022/01/02 12:38:51;;;;;;;0.40;0.20;;;16.80;56.30;;;;;;5089280;28;20781;-74
2022/01/02 12:41:19;;;;;;;0.40;0.30;;;16.70;56.80;;;;;;5088433;28;20723;-73
2022/01/02 12:43:56;;;;;;;0.40;0.20;;;16.80;56.70;;;;;;5110020;28;20383;-73
2022/01/02 12:46:32;;;;;;;0.40;0.30;;;16.80;57.20;;;;;;5106893;28;20389;-73
2022/01/02 12:48:58;;;;;;;0.40;0.20;;;16.80;57.20;;;;;;5086711;28;20484;-73
2022/01/02 12:51:29;;;;;;;0.40;0.30;;;16.70;57.50;;;;;;5090489;28;20380;-73
2022/01/02 12:54:03;;;;;;;0.40;0.20;;;16.70;57.70;;;;;;5088569;28;20460;-73
2022/01/02 12:56:50;;;;;;;0.40;0.30;;;16.60;58.20;;;;;;5087990;28;20726;-73
2022/01/02 12:59:17;;;;;;;0.40;0.30;;;16.60;58.30;;;;;;5103188;28;21031;-73
2022/01/02 13:02:12;;;;;;;0.40;0.30;;;16.70;58.30;;;;;;5107950;28;20384;-72
2022/01/02 13:04:45;;;;;;;0.40;0.20;;;16.70;58.70;;;;;;5096315;28;20446;-73
2022/01/02 13:07:22;;;;;;;0.40;0.20;;;16.80;58.50;;;;;;5103017;28;20392;-74
2022/01/02 13:09:50;;;;;;;0.40;0.20;;;16.80;59.10;;;;;;5109852;28;20453;-74
2022/01/02 13:12:25;;;;;;;0.40;0.20;;;16.90;59.00;;;;;;5107345;28;20764;-74